Terminal Aerodrome Forecast
Issued by NWS

Home | Current Version | Previous Version | Text Only | Print | Product List | Glossary On
Versions: 1 2 3 4 5 6 7 8 9 10 11 12 13 14 15 16 17 18 19 20 21
000
FTUS41 KCAR 231720
TAFFVE
TAF
KFVE 231720Z 2318/2418 31017G27KT P6SM SKC
     FM232300 30010KT P6SM FEW250
     FM240300 29006KT P6SM FEW250
     FM241300 18006KT P6SM BKN110
     FM241600 19010G17KT P6SM OVC050=

USA.gov is the U.S. government's official web portal to all federal, state and local government web resources and services.